Time;durP1;ratioP1;P1;durP2;ratioP2;P2;SDS_P1;SDS_P2;PMS_P1;PMS_P2;Temp;Humidity;BMP_temperature;BMP_pressure;BME280_temperature;BME280_humidity;BME280_pressure;Samples;Min_cycle;Max_cycle;Signal;HPM_P1;HPM_P2
2021/12/29 00:01:23;;;;;;;78.83;17.50;;;;;;;;;;5114817;28;20761;-73
2021/12/29 00:03:49;;;;;;;69.63;18.20;;;;;;;;;;5114019;28;20290;-73
2021/12/29 00:06:15;;;;;;;79.47;20.43;;;;;;;;;;5114683;28;20356;-73
2021/12/29 00:08:42;;;;;;;75.57;21.20;;;;;;;;;;5115036;28;20284;-73
2021/12/29 00:11:08;;;;;;;77.20;20.50;;;;;;;;;;5113474;28;20285;-73
2021/12/29 00:13:34;;;;;;;77.70;21.20;;;;;;;;;;5114839;28;20317;-73
2021/12/29 00:16:00;;;;;;;70.27;20.27;;;;;;;;;;5114360;28;20323;-73
2021/12/29 00:18:34;;;;;;;88.40;22.27;;;;;;;;;;5114472;28;20304;-73
2021/12/29 00:21:02;;;;;;;81.27;22.30;;;;;;;;;;5113981;28;20381;-73
2021/12/29 00:23:29;;;;;;;86.37;24.10;;;;;;;;;;5114560;27;20346;-73
2021/12/29 00:25:55;;;;;;;70.07;20.60;;;;;;;;;;5113629;28;20285;-73
2021/12/29 00:28:22;;;;;;;94.03;24.43;;;;;;;;;;5114192;28;20269;-73
2021/12/29 00:30:48;;;;;;;95.30;24.07;;;;;;;;;;5114275;28;20314;-73
2021/12/29 00:33:14;;;;;;;79.90;22.40;;;;;;;;;;5112802;28;20280;-73
2021/12/29 00:35:42;;;;;;;87.37;22.80;;;;;;;;;;5113642;28;20314;-73
2021/12/29 00:38:10;;;;;;;113.47;26.13;;;;;;;;;;5113542;28;20907;-73
2021/12/29 00:40:37;;;;;;;99.60;25.23;;;;;;;;;;5113221;28;20376;-72
2021/12/29 00:43:05;;;;;;;101.60;24.40;;;;;;;;;;5113792;28;20365;-73
2021/12/29 00:45:33;;;;;;;87.63;22.70;;;;;;;;;;5113146;28;20781;-72
2021/12/29 00:47:59;;;;;;;76.73;21.37;;;;;;;;;;5113999;28;20314;-73
2021/12/29 00:50:27;;;;;;;109.73;24.23;;;;;;;;;;5113649;28;20365;-73
2021/12/29 00:52:53;;;;;;;135.17;24.17;;;;;;;;;;5113903;28;20778;-72
2021/12/29 00:55:19;;;;;;;118.83;22.90;;;;;;;;;;5113599;28;20277;-73
2021/12/29 00:57:46;;;;;;;128.10;23.37;;;;;;;;;;5113842;28;20288;-73
2021/12/29 01:00:17;;;;;;;157.77;21.80;;;;;;;;;;5112431;28;20293;-73
2021/12/29 01:02:43;;;;;;;173.23;22.60;;;;;;;;;;5113818;28;20339;-73
2021/12/29 01:05:10;;;;;;;139.30;20.80;;;;;;;;;;5113407;27;20281;-73
2021/12/29 01:07:36;;;;;;;151.70;21.03;;;;;;;;;;5113666;28;20284;-73
2021/12/29 01:10:04;;;;;;;160.20;21.17;;;;;;;;;;5113639;28;20350;-73
2021/12/29 01:12:30;;;;;;;126.33;19.87;;;;;;;;;;5113616;28;20320;-73
2021/12/29 01:14:57;;;;;;;149.30;19.93;;;;;;;;;;5113322;28;20830;-73
2021/12/29 01:17:24;;;;;;;202.47;22.90;;;;;;;;;;5113304;28;20325;-73
2021/12/29 01:19:53;;;;;;;177.07;20.10;;;;;;;;;;5113446;28;20290;-73
2021/12/29 01:22:20;;;;;;;217.50;22.37;;;;;;;;;;5113428;28;20345;-73
2021/12/29 01:24:46;;;;;;;136.40;19.17;;;;;;;;;;5113537;28;20285;-73
2021/12/29 01:27:13;;;;;;;141.57;19.13;;;;;;;;;;5112860;28;20761;-73
2021/12/29 01:29:39;;;;;;;122.07;18.00;;;;;;;;;;5113592;28;20273;-72
2021/12/29 01:32:06;;;;;;;129.97;17.23;;;;;;;;;;5112134;28;20475;-73
2021/12/29 01:34:32;;;;;;;140.40;19.03;;;;;;;;;;5113126;28;20278;-73
2021/12/29 01:36:59;;;;;;;96.40;16.07;;;;;;;;;;5113455;28;20277;-72
2021/12/29 01:39:25;;;;;;;127.23;15.80;;;;;;;;;;5112865;28;20309;-73
2021/12/29 01:41:53;;;;;;;104.83;16.47;;;;;;;;;;5112777;28;20273;-72
2021/12/29 01:44:21;;;;;;;93.07;15.17;;;;;;;;;;5112921;28;20292;-73
2021/12/29 01:46:47;;;;;;;104.87;15.23;;;;;;;;;;5113514;28;20277;-73
2021/12/29 01:49:14;;;;;;;100.20;16.27;;;;;;;;;;5112883;28;20403;-73
2021/12/29 01:52:00;;;;;;;84.10;14.80;;;;;;;;;;5113448;28;20335;-73
2021/12/29 01:54:26;;;;;;;98.50;17.47;;;;;;;;;;5112923;28;20783;-72
2021/12/29 01:56:54;;;;;;;91.10;16.17;;;;;;;;;;5113342;28;20368;-72
2021/12/29 01:59:20;;;;;;;91.00;18.90;;;;;;;;;;5112774;28;20289;-72
2021/12/29 02:01:46;;;;;;;85.53;17.90;;;;;;;;;;5113033;28;20739;-72
2021/12/29 02:04:12;;;;;;;81.83;17.37;;;;;;;;;;5112875;28;20360;-72
2021/12/29 02:06:39;;;;;;;88.93;18.23;;;;;;;;;;5113097;28;20285;-73
2021/12/29 02:09:05;;;;;;;81.80;20.03;;;;;;;;;;5113002;28;20406;-73
2021/12/29 02:11:33;;;;;;;84.50;20.07;;;;;;;;;;5112752;28;20281;-72
2021/12/29 02:14:00;;;;;;;77.57;19.97;;;;;;;;;;5113101;28;20736;-72
2021/12/29 02:16:27;;;;;;;79.67;20.50;;;;;;;;;;5112689;28;20278;-73
2021/12/29 02:19:05;;;;;;;83.50;22.07;;;;;;;;;;5111667;28;20657;-73
2021/12/29 02:21:32;;;;;;;77.63;22.33;;;;;;;;;;5110902;28;20296;-73
2021/12/29 02:24:18;;;;;;;66.87;21.37;;;;;;;;;;5112926;28;20682;-73
2021/12/29 02:26:44;;;;;;;;;;;;;;;;;;5113251;28;20285;-73
2021/12/29 02:29:12;;;;;;;58.73;21.80;;;;;;;;;;5112862;28;19927;-72
2021/12/29 02:31:39;;;;;;;49.60;19.40;;;;;;;;;;5112520;28;20356;-73
2021/12/29 02:34:07;;;;;;;62.60;23.63;;;;;;;;;;5094791;28;20285;-72
2021/12/29 02:36:33;;;;;;;59.70;22.33;;;;;;;;;;5112479;28;20281;-73
2021/12/29 02:39:01;;;;;;;63.23;22.80;;;;;;;;;;5112790;28;20392;-72
2021/12/29 02:41:27;;;;;;;50.77;20.50;;;;;;;;;;5112082;28;20761;-73
2021/12/29 02:44:00;;;;;;;64.23;22.27;;;;;;;;;;5112720;28;20334;-73
2021/12/29 02:46:27;;;;;;;53.97;20.77;;;;;;;;;;5112599;28;20344;-72
2021/12/29 02:48:56;;;;;;;47.93;19.77;;;;;;;;;;5112649;28;20372;-72
2021/12/29 02:51:22;;;;;;;50.53;19.07;;;;;;;;;;5111088;28;20794;-72
2021/12/29 02:53:48;;;;;;;48.47;20.13;;;;;;;;;;5113762;28;20286;-72
2021/12/29 02:56:15;;;;;;;45.93;18.30;;;;;;;;;;5115391;28;20656;-73
2021/12/29 02:58:41;;;;;;;49.87;19.20;;;;;;;;;;5114618;28;20380;-72
2021/12/29 03:01:12;;;;;;;56.13;21.00;;;;;;;;;;5116166;28;20360;-73
2021/12/29 03:03:38;;;;;;;43.53;19.53;;;;;;;;;;5114770;28;20281;-72
2021/12/29 03:06:09;;;;;;;56.07;21.20;;;;;;;;;;5116096;28;20286;-73
2021/12/29 03:08:36;;;;;;;48.20;19.43;;;;;;;;;;5115697;27;20274;-73
2021/12/29 03:11:02;;;;;;;52.57;20.10;;;;;;;;;;5115002;28;20292;-73
2021/12/29 03:13:29;;;;;;;50.43;19.83;;;;;;;;;;5115631;28;20282;-72
2021/12/29 03:15:57;;;;;;;43.73;19.23;;;;;;;;;;5116036;28;20311;-72
2021/12/29 03:18:23;;;;;;;46.80;19.77;;;;;;;;;;5115379;28;20302;-72
2021/12/29 03:20:50;;;;;;;45.03;19.27;;;;;;;;;;5115378;28;20346;-72
2021/12/29 03:23:17;;;;;;;44.50;18.70;;;;;;;;;;5115850;28;20355;-72
2021/12/29 03:25:44;;;;;;;43.30;19.10;;;;;;;;;;5115311;28;20331;-72
2021/12/29 03:28:10;;;;;;;46.83;17.77;;;;;;;;;;5115620;28;20277;-73
2021/12/29 03:30:38;;;;;;;46.03;18.60;;;;;;;;;;5115261;28;20309;-73
2021/12/29 03:33:05;;;;;;;46.13;18.43;;;;;;;;;;5115412;28;20284;-73
2021/12/29 03:35:31;;;;;;;44.27;18.10;;;;;;;;;;5115213;28;20355;-73
2021/12/29 03:37:58;;;;;;;38.50;16.77;;;;;;;;;;5115596;28;20285;-73
2021/12/29 03:40:25;;;;;;;53.83;19.80;;;;;;;;;;5115052;28;20307;-73
2021/12/29 03:42:51;;;;;;;57.30;19.87;;;;;;;;;;5115506;28;20309;-73
2021/12/29 03:45:17;;;;;;;47.40;20.03;;;;;;;;;;5115267;28;20331;-73
2021/12/29 03:47:43;;;;;;;55.20;18.90;;;;;;;;;;5114753;28;21343;-72
2021/12/29 03:50:10;;;;;;;47.57;19.33;;;;;;;;;;5115106;28;20273;-73
2021/12/29 03:52:36;;;;;;;41.17;17.57;;;;;;;;;;5114816;28;20326;-73
2021/12/29 03:55:02;;;;;;;40.10;17.97;;;;;;;;;;5115198;28;20420;-73
2021/12/29 03:57:28;;;;;;;42.83;17.57;;;;;;;;;;5114809;28;20289;-72
2021/12/29 04:02:30;;;;;;;48.77;18.43;;;;;;;;;;5484882;22;20371;-72
2021/12/29 04:04:57;;;;;;;50.93;16.00;;;;;;;;;;5053969;28;20276;-72
2021/12/29 04:07:23;;;;;;;47.67;16.80;;;;;;;;;;5054550;28;20344;-72
2021/12/29 04:09:49;;;;;;;51.00;16.30;;;;;;;;;;5053972;28;20278;-73
2021/12/29 04:12:15;;;;;;;51.73;16.77;;;;;;;;;;5054241;28;20283;-72
2021/12/29 04:14:41;;;;;;;42.73;15.10;;;;;;;;;;5053904;28;20306;-72
2021/12/29 04:17:09;;;;;;;49.10;14.57;;;;;;;;;;5054161;28;20319;-72
2021/12/29 04:22:24;;;;;;;52.03;15.97;;;;;;;;;;5054108;28;20283;-73
2021/12/29 04:24:50;;;;;;;50.40;16.53;;;;;;;;;;5053671;28;20293;-72
2021/12/29 04:27:16;;;;;;;50.13;15.60;;;;;;;;;;5052977;28;20287;-72
2021/12/29 04:29:43;;;;;;;47.83;16.83;;;;;;;;;;5053608;28;20275;-72
2021/12/29 04:32:09;;;;;;;41.30;16.50;;;;;;;;;;5053107;28;20834;-72
2021/12/29 04:34:35;;;;;;;48.33;17.73;;;;;;;;;;5052355;28;20286;-72
2021/12/29 04:37:01;;;;;;;41.37;16.43;;;;;;;;;;5053746;28;20418;-72
2021/12/29 04:39:27;;;;;;;42.53;16.00;;;;;;;;;;5052450;28;20800;-72
2021/12/29 04:41:53;;;;;;;41.63;16.40;;;;;;;;;;5053320;28;20286;-72
2021/12/29 04:44:20;;;;;;;49.63;16.97;;;;;;;;;;5053514;28;20279;-72
2021/12/29 04:46:47;;;;;;;45.93;16.87;;;;;;;;;;5053262;28;20279;-72
2021/12/29 04:49:14;;;;;;;49.53;18.10;;;;;;;;;;5053478;28;20362;-73
2021/12/29 04:51:51;;;;;;;61.23;18.87;;;;;;;;;;5053184;28;20377;-73
2021/12/29 04:54:18;;;;;;;58.20;17.73;;;;;;;;;;5053428;28;20282;-73
2021/12/29 04:56:44;;;;;;;52.30;16.83;;;;;;;;;;5051808;28;20378;-72
2021/12/29 04:59:10;;;;;;;58.20;18.00;;;;;;;;;;5053235;28;20349;-72
2021/12/29 05:01:37;;;;;;;66.40;18.47;;;;;;;;;;5052712;28;20295;-73
2021/12/29 05:04:03;;;;;;;58.67;17.77;;;;;;;;;;5053491;28;20283;-73
2021/12/29 05:09:14;;;;;;;62.60;18.85;;;;;;;;;;5053186;28;20275;-72
2021/12/29 05:11:40;;;;;;;55.43;16.37;;;;;;;;;;5052829;28;20127;-73
2021/12/29 05:14:06;;;;;;;66.70;19.03;;;;;;;;;;5053191;28;20279;-72
2021/12/29 05:16:32;;;;;;;52.90;17.53;;;;;;;;;;5052443;28;20382;-72
2021/12/29 05:18:58;;;;;;;68.73;19.10;;;;;;;;;;5052774;28;20414;-72
2021/12/29 05:21:25;;;;;;;67.30;17.50;;;;;;;;;;5053259;28;20310;-72
2021/12/29 05:23:51;;;;;;;58.60;18.20;;;;;;;;;;5035029;28;20322;-73
2021/12/29 05:26:18;;;;;;;65.03;19.70;;;;;;;;;;5053043;28;20284;-72
2021/12/29 05:28:45;;;;;;;58.60;16.57;;;;;;;;;;5052592;28;20385;-72
2021/12/29 05:31:11;;;;;;;49.10;16.30;;;;;;;;;;5051766;28;20623;-72
2021/12/29 05:33:37;;;;;;;54.47;17.83;;;;;;;;;;5052564;28;20282;-72
2021/12/29 05:36:04;;;;;;;53.27;17.33;;;;;;;;;;5052797;28;20283;-72
2021/12/29 05:38:30;;;;;;;58.27;17.43;;;;;;;;;;5052678;28;20303;-73
2021/12/29 05:40:56;;;;;;;56.57;17.93;;;;;;;;;;5051432;28;20965;-73
2021/12/29 05:43:22;;;;;;;73.93;20.43;;;;;;;;;;5052699;28;20322;-72
2021/12/29 05:45:49;;;;;;;66.57;20.87;;;;;;;;;;5051389;28;20600;-72
2021/12/29 05:48:15;;;;;;;59.10;19.57;;;;;;;;;;5052736;28;20341;-73
2021/12/29 05:50:41;;;;;;;50.70;18.80;;;;;;;;;;5052294;28;20362;-72
2021/12/29 05:53:08;;;;;;;56.03;20.07;;;;;;;;;;5051990;28;20388;-73
2021/12/29 05:55:34;;;;;;;55.30;19.40;;;;;;;;;;5052657;28;20287;-73
2021/12/29 05:58:00;;;;;;;62.73;20.17;;;;;;;;;;5052171;28;20337;-72
2021/12/29 06:00:27;;;;;;;81.73;22.33;;;;;;;;;;5052524;28;20371;-73
2021/12/29 06:02:54;;;;;;;73.70;21.03;;;;;;;;;;5052232;28;20466;-72
2021/12/29 06:05:21;;;;;;;60.97;18.73;;;;;;;;;;5051599;28;20303;-72
2021/12/29 06:07:47;;;;;;;69.63;20.10;;;;;;;;;;5052184;28;20366;-72
2021/12/29 06:10:14;;;;;;;67.63;20.40;;;;;;;;;;5052457;28;20409;-73
2021/12/29 06:12:40;;;;;;;81.00;21.63;;;;;;;;;;5051484;28;20288;-72
2021/12/29 06:15:07;;;;;;;82.53;20.97;;;;;;;;;;5052346;28;20280;-73
2021/12/29 06:17:33;;;;;;;62.80;19.80;;;;;;;;;;5052052;28;20757;-75
2021/12/29 06:19:59;;;;;;;79.10;21.90;;;;;;;;;;5050794;28;20299;-73
2021/12/29 06:22:25;;;;;;;71.27;20.40;;;;;;;;;;5052309;28;20294;-73
2021/12/29 06:24:52;;;;;;;66.00;19.07;;;;;;;;;;5052080;28;20460;-73
2021/12/29 06:27:20;;;;;;;62.10;19.50;;;;;;;;;;5052722;28;20311;-72
2021/12/29 06:29:46;;;;;;;54.27;17.87;;;;;;;;;;5055994;28;20573;-73
2021/12/29 06:32:12;;;;;;;59.30;18.03;;;;;;;;;;5056313;28;20314;-73
2021/12/29 06:34:38;;;;;;;65.03;18.23;;;;;;;;;;5056161;28;20272;-73
2021/12/29 06:37:08;;;;;;;72.27;20.57;;;;;;;;;;5055723;28;20279;-73
2021/12/29 06:39:36;;;;;;;60.97;17.60;;;;;;;;;;5056056;28;20335;-73
2021/12/29 06:42:02;;;;;;;84.40;21.13;;;;;;;;;;5054598;28;20295;-73
2021/12/29 06:44:28;;;;;;;74.53;20.50;;;;;;;;;;5055532;28;20669;-73
2021/12/29 06:46:54;;;;;;;86.63;19.80;;;;;;;;;;5055578;28;20283;-76
2021/12/29 06:49:21;;;;;;;63.57;18.47;;;;;;;;;;5054545;28;20370;-72
2021/12/29 06:51:48;;;;;;;69.27;17.70;;;;;;;;;;5055103;28;20783;-73
2021/12/29 06:54:14;;;;;;;78.23;17.77;;;;;;;;;;5055697;28;20362;-73
2021/12/29 06:56:40;;;;;;;67.20;18.77;;;;;;;;;;5055592;28;20286;-72
2021/12/29 06:59:06;;;;;;;74.83;18.10;;;;;;;;;;5055241;28;20433;-73
2021/12/29 07:01:33;;;;;;;64.83;17.27;;;;;;;;;;5055184;28;20284;-72
2021/12/29 07:03:59;;;;;;;78.40;17.57;;;;;;;;;;5055327;28;20279;-72
2021/12/29 07:06:25;;;;;;;75.03;17.30;;;;;;;;;;5055729;28;20277;-72
2021/12/29 07:08:51;;;;;;;78.20;17.90;;;;;;;;;;5055057;28;20785;-73
2021/12/29 07:11:17;;;;;;;67.97;16.47;;;;;;;;;;5055390;28;20789;-72
2021/12/29 07:13:44;;;;;;;85.77;17.73;;;;;;;;;;5055305;28;20321;-72
2021/12/29 07:16:10;;;;;;;70.97;17.23;;;;;;;;;;5054928;28;20279;-72
2021/12/29 07:18:37;;;;;;;99.83;18.93;;;;;;;;;;5054067;28;20300;-72
2021/12/29 07:21:03;;;;;;;122.40;18.33;;;;;;;;;;5054862;28;20280;-72
2021/12/29 07:23:29;;;;;;;118.30;19.20;;;;;;;;;;5053906;28;20283;-72
2021/12/29 07:25:55;;;;;;;77.43;17.10;;;;;;;;;;5053622;28;20378;-73
2021/12/29 07:28:21;;;;;;;92.17;16.63;;;;;;;;;;5054979;28;20276;-73
2021/12/29 07:30:48;;;;;;;122.93;19.83;;;;;;;;;;5055019;28;20279;-72
2021/12/29 07:33:14;;;;;;;100.40;17.90;;;;;;;;;;5054592;28;20337;-73
2021/12/29 07:35:40;;;;;;;77.77;14.30;;;;;;;;;;5054847;28;20289;-72
2021/12/29 07:38:06;;;;;;;83.40;15.93;;;;;;;;;;5054482;28;20375;-72
2021/12/29 07:40:34;;;;;;;88.50;15.90;;;;;;;;;;5054095;28;20371;-72
2021/12/29 07:43:01;;;;;;;60.10;14.80;;;;;;;;;;5054222;28;20653;-73
2021/12/29 07:45:28;;;;;;;82.83;16.67;;;;;;;;;;5054828;28;20288;-72
2021/12/29 07:47:55;;;;;;;118.97;16.87;;;;;;;;;;5054432;28;20284;-73
2021/12/29 07:50:21;;;;;;;86.77;17.23;;;;;;;;;;5054771;28;20287;-73
2021/12/29 07:52:48;;;;;;;71.57;15.87;;;;;;;;;;5054720;28;20342;-73
2021/12/29 07:55:17;;;;;;;74.57;16.33;;;;;;;;;;5054290;28;20370;-73
2021/12/29 07:57:44;;;;;;;87.10;16.83;;;;;;;;;;5054542;28;20287;-74
2021/12/29 08:00:11;;;;;;;137.47;19.97;;;;;;;;;;5054031;28;20295;-74
2021/12/29 08:02:37;;;;;;;98.00;17.87;;;;;;;;;;5054121;28;20378;-73
2021/12/29 08:05:09;;;;;;;112.40;17.93;;;;;;;;;;5053073;28;20319;-73
2021/12/29 08:07:36;;;;;;;192.00;21.47;;;;;;;;;;5054300;28;20366;-73
2021/12/29 08:10:02;;;;;;;98.80;17.80;;;;;;;;;;5053953;28;20325;-74
2021/12/29 08:12:28;;;;;;;100.37;17.93;;;;;;;;;;5054536;28;20311;-73
2021/12/29 08:14:54;;;;;;;169.43;21.17;;;;;;;;;;5054002;28;20719;-73
2021/12/29 08:17:20;;;;;;;93.10;16.07;;;;;;;;;;5054082;28;20314;-73
2021/12/29 08:19:46;;;;;;;113.20;19.20;;;;;;;;;;5054035;28;20295;-73
2021/12/29 08:22:13;;;;;;;141.40;19.27;;;;;;;;;;5052489;28;20319;-73
2021/12/29 08:24:39;;;;;;;116.57;17.43;;;;;;;;;;5053955;28;20363;-77
2021/12/29 08:27:05;;;;;;;139.37;16.80;;;;;;;;;;5053565;28;20283;-73
2021/12/29 08:29:31;;;;;;;103.80;16.43;;;;;;;;;;5053904;28;20319;-74
2021/12/29 08:31:58;;;;;;;67.10;12.80;;;;;;;;;;5053659;28;20366;-74
2021/12/29 08:34:25;;;;;;;65.43;13.77;;;;;;;;;;5053884;28;20292;-73
2021/12/29 08:36:51;;;;;;;55.83;13.63;;;;;;;;;;5053916;28;20326;-73
2021/12/29 08:39:18;;;;;;;61.97;13.97;;;;;;;;;;5053433;28;20414;-73
2021/12/29 08:41:46;;;;;;;47.17;12.90;;;;;;;;;;5053973;28;20336;-69
2021/12/29 08:44:12;;;;;;;48.07;13.43;;;;;;;;;;5053403;28;20287;-71
2021/12/29 08:46:38;;;;;;;41.97;11.87;;;;;;;;;;5053709;28;20358;-71
2021/12/29 08:49:04;;;;;;;44.73;11.63;;;;;;;;;;5035748;28;20287;-71
2021/12/29 08:51:31;;;;;;;36.43;11.83;;;;;;;;;;5053498;28;20755;-71
2021/12/29 08:53:57;;;;;;;48.23;13.73;;;;;;;;;;5052773;28;20331;-71
2021/12/29 08:56:24;;;;;;;42.30;12.20;;;;;;;;;;5053177;28;20284;-71
2021/12/29 08:58:50;;;;;;;39.40;12.23;;;;;;;;;;5053347;28;20299;-71
2021/12/29 09:01:16;;;;;;;36.43;11.70;;;;;;;;;;5053236;28;20282;-71
2021/12/29 09:03:42;;;;;;;37.97;12.50;;;;;;;;;;5053536;28;20370;-71
2021/12/29 09:06:09;;;;;;;43.33;12.57;;;;;;;;;;5053032;28;20281;-71
2021/12/29 09:08:35;;;;;;;45.83;12.40;;;;;;;;;;5053352;28;20280;-71
2021/12/29 09:11:01;;;;;;;37.73;13.10;;;;;;;;;;5053228;28;20377;-72
2021/12/29 09:13:27;;;;;;;39.80;13.13;;;;;;;;;;5053325;28;20366;-71
2021/12/29 09:15:56;;;;;;;37.93;11.40;;;;;;;;;;5053314;28;20744;-71
2021/12/29 09:18:24;;;;;;;32.73;12.27;;;;;;;;;;5052755;28;20287;-71
2021/12/29 09:20:51;;;;;;;40.03;12.47;;;;;;;;;;5053180;28;20295;-71
2021/12/29 09:23:18;;;;;;;45.13;11.63;;;;;;;;;;5052876;28;20366;-71
2021/12/29 09:25:45;;;;;;;37.50;12.87;;;;;;;;;;5053006;28;20355;-71
2021/12/29 09:28:13;;;;;;;33.67;10.57;;;;;;;;;;5052563;28;20322;-71
2021/12/29 09:30:40;;;;;;;31.20;10.33;;;;;;;;;;5052862;28;20322;-71
2021/12/29 09:33:07;;;;;;;26.47;9.97;;;;;;;;;;5052624;28;20284;-72
2021/12/29 09:35:33;;;;;;;37.03;10.87;;;;;;;;;;5052925;28;20651;-71
2021/12/29 09:38:00;;;;;;;29.87;9.53;;;;;;;;;;5052926;28;20290;-72
2021/12/29 09:40:26;;;;;;;30.60;10.07;;;;;;;;;;5052522;28;20393;-72
2021/12/29 09:42:53;;;;;;;26.77;9.53;;;;;;;;;;5035250;28;20283;-71
2021/12/29 09:45:20;;;;;;;29.13;10.40;;;;;;;;;;5052391;28;20382;-71
2021/12/29 09:47:47;;;;;;;30.63;9.43;;;;;;;;;;5051915;28;20804;-71
2021/12/29 09:50:15;;;;;;;30.97;8.70;;;;;;;;;;5052497;28;20315;-70
2021/12/29 09:52:42;;;;;;;23.93;8.10;;;;;;;;;;5052770;28;20771;-69
2021/12/29 09:55:09;;;;;;;24.97;8.33;;;;;;;;;;5051383;28;20759;-71
2021/12/29 09:57:37;;;;;;;25.70;7.93;;;;;;;;;;5052677;28;20287;-71
2021/12/29 10:00:08;;;;;;;19.73;8.03;;;;;;;;;;5052316;28;20296;-71
2021/12/29 10:02:34;;;;;;;25.63;8.50;;;;;;;;;;5053501;28;20375;-71
2021/12/29 10:05:00;;;;;;;29.77;9.33;;;;;;;;;;5056590;28;20837;-70
2021/12/29 10:07:26;;;;;;;27.27;8.63;;;;;;;;;;5056425;28;20397;-71
2021/12/29 10:09:53;;;;;;;28.07;7.67;;;;;;;;;;5056730;28;20276;-70
2021/12/29 10:12:21;;;;;;;27.47;7.57;;;;;;;;;;5056425;28;20309;-70
2021/12/29 10:14:49;;;;;;;27.47;8.03;;;;;;;;;;5055348;28;20288;-69
2021/12/29 10:17:16;;;;;;;29.27;8.17;;;;;;;;;;5056419;28;20276;-70
2021/12/29 10:19:42;;;;;;;25.93;7.77;;;;;;;;;;5056514;28;20689;-70
2021/12/29 10:22:18;;;;;;;35.80;8.70;;;;;;;;;;5056381;28;20328;-73
2021/12/29 10:24:44;;;;;;;26.43;7.33;;;;;;;;;;5071940;28;20358;-73
2021/12/29 10:27:16;;;;;;;26.33;6.53;;;;;;;;;;5056103;28;20363;-74
2021/12/29 10:29:43;;;;;;;25.47;7.33;;;;;;;;;;5056483;28;20275;-70
2021/12/29 10:32:09;;;;;;;21.83;6.10;;;;;;;;;;5071626;28;20288;-71
2021/12/29 10:34:35;;;;;;;25.97;6.27;;;;;;;;;;5055803;28;20329;-70
2021/12/29 10:37:04;;;;;;;32.60;6.90;;;;;;;;;;5056180;28;20329;-77
2021/12/29 10:39:37;;;;;;;27.40;7.10;;;;;;;;;;5055677;28;20349;-74
2021/12/29 10:42:09;;;;;;;22.60;6.97;;;;;;;;;;5054986;28;20331;-75
2021/12/29 10:44:39;;;;;;;33.97;6.80;;;;;;;;;;5055644;28;20287;-74
2021/12/29 10:47:14;;;;;;;28.93;6.90;;;;;;;;;;5071044;28;20409;-74
2021/12/29 10:49:49;;;;;;;28.40;6.93;;;;;;;;;;5051924;28;20279;-73
2021/12/29 10:52:15;;;;;;;24.07;6.90;;;;;;;;;;5055099;28;20317;-74
2021/12/29 10:54:41;;;;;;;31.30;7.10;;;;;;;;;;5053950;28;20362;-74
2021/12/29 10:57:12;;;;;;;33.93;8.43;;;;;;;;;;5054963;28;20279;-73
2021/12/29 10:59:41;;;;;;;36.07;8.13;;;;;;;;;;5054899;28;20307;-69
2021/12/29 11:02:09;;;;;;;32.07;7.70;;;;;;;;;;5055095;28;20353;-72
2021/12/29 11:04:35;;;;;;;24.53;7.10;;;;;;;;;;5055275;28;20506;-73
2021/12/29 11:07:02;;;;;;;32.67;8.77;;;;;;;;;;5055524;28;20286;-73
2021/12/29 11:09:31;;;;;;;32.77;9.40;;;;;;;;;;5055217;28;20271;-73
2021/12/29 11:11:57;;;;;;;38.97;9.47;;;;;;;;;;5054495;28;20295;-73
2021/12/29 11:14:33;;;;;;;27.63;8.30;;;;;;;;;;5053842;28;20337;-75
2021/12/29 11:17:01;;;;;;;30.40;8.83;;;;;;;;;;5055376;28;20301;-74
2021/12/29 11:19:27;;;;;;;32.13;8.63;;;;;;;;;;5054625;28;20712;-74
2021/12/29 11:22:04;;;;;;;32.57;8.30;;;;;;;;;;5038044;28;20288;-74
2021/12/29 11:24:30;;;;;;;28.30;7.77;;;;;;;;;;5054924;28;20280;-71
2021/12/29 11:26:58;;;;;;;29.07;7.80;;;;;;;;;;5055092;28;20315;-69
2021/12/29 11:29:25;;;;;;;33.13;7.53;;;;;;;;;;5054793;28;20287;-70
2021/12/29 11:31:57;;;;;;;25.13;7.40;;;;;;;;;;5053810;28;20373;-70
2021/12/29 11:34:26;;;;;;;30.57;6.97;;;;;;;;;;5054763;28;20367;-70
2021/12/29 11:37:01;;;;;;;25.93;8.23;;;;;;;;;;5053732;28;20290;-70
2021/12/29 11:39:27;;;;;;;;;;;;;;;;;;5055073;28;20393;-70
2021/12/29 11:41:53;;;;;;;25.90;6.83;;;;;;;;;;5055192;28;20382;-69
2021/12/29 11:44:19;;;;;;;29.90;6.83;;;;;;;;;;5054845;28;20326;-70
2021/12/29 11:46:45;;;;;;;26.17;6.00;;;;;;;;;;5055053;28;20283;-69
2021/12/29 11:49:11;;;;;;;20.87;5.90;;;;;;;;;;5053744;28;20340;-70
2021/12/29 11:51:41;;;;;;;20.60;5.30;;;;;;;;;;5054394;28;20341;-70
2021/12/29 11:54:12;;;;;;;20.97;5.50;;;;;;;;;;5053958;28;20374;-69
2021/12/29 11:56:42;;;;;;;19.10;5.87;;;;;;;;;;5054079;28;20828;-69
2021/12/29 11:59:09;;;;;;;23.77;6.40;;;;;;;;;;5053494;28;20296;-69
2021/12/29 12:01:37;;;;;;;20.00;5.97;;;;;;;;;;5054195;28;20276;-70
2021/12/29 12:04:04;;;;;;;20.93;6.33;;;;;;;;;;5054477;28;20295;-69
2021/12/29 12:06:32;;;;;;;25.17;6.20;;;;;;;;;;5054154;28;20634;-70
2021/12/29 12:09:01;;;;;;;20.23;5.67;;;;;;;;;;5054375;28;20337;-69
2021/12/29 12:11:28;;;;;;;21.63;6.77;;;;;;;;;;5053784;28;20715;-70
2021/12/29 12:13:54;;;;;;;21.30;6.20;;;;;;;;;;5054403;28;20276;-69
2021/12/29 12:16:21;;;;;;;18.60;5.80;;;;;;;;;;5054174;28;20337;-71
2021/12/29 12:19:00;;;;;;;21.03;5.37;;;;;;;;;;5053745;28;20299;-69
2021/12/29 12:21:31;;;;;;;15.53;5.30;;;;;;;;;;5053731;28;20284;-69
2021/12/29 12:24:17;;;;;;;18.37;5.30;;;;;;;;;;5054100;28;20280;-69
2021/12/29 12:26:54;;;;;;;20.83;6.43;;;;;;;;;;5053318;28;20282;-69
2021/12/29 12:29:21;;;;;;;15.57;5.43;;;;;;;;;;5053941;28;20319;-74
2021/12/29 12:32:20;;;;;;;23.30;6.97;;;;;;;;;;5052414;28;20275;-75
2021/12/29 12:34:48;;;;;;;20.33;6.27;;;;;;;;;;5009817;28;20310;-75
2021/12/29 12:37:15;;;;;;;21.17;5.73;;;;;;;;;;5052138;28;20283;-75
2021/12/29 12:39:51;;;;;;;23.77;6.43;;;;;;;;;;5050924;28;20306;-76
2021/12/29 12:42:18;;;;;;;23.37;6.17;;;;;;;;;;5052937;28;20370;-69
2021/12/29 12:44:44;;;;;;;16.03;6.13;;;;;;;;;;5053350;28;20751;-69
2021/12/29 12:47:12;;;;;;;21.80;6.07;;;;;;;;;;5052457;28;20314;-70
2021/12/29 12:49:44;;;;;;;21.87;5.53;;;;;;;;;;5053231;28;20276;-74
2021/12/29 12:52:11;;;;;;;18.37;5.43;;;;;;;;;;5053535;28;20287;-73
2021/12/29 12:54:49;;;;;;;17.60;4.87;;;;;;;;;;5052420;28;20626;-74
2021/12/29 12:57:26;;;;;;;15.73;4.90;;;;;;;;;;5053076;28;20313;-73
2021/12/29 12:59:54;;;;;;;15.53;4.80;;;;;;;;;;5053140;28;20303;-72
2021/12/29 13:02:24;;;;;;;16.37;5.43;;;;;;;;;;5053190;28;20411;-73
2021/12/29 13:05:08;;;;;;;16.17;6.03;;;;;;;;;;5052719;28;21174;-73
2021/12/29 13:07:34;;;;;;;16.77;6.00;;;;;;;;;;5053041;28;20409;-69
2021/12/29 13:10:01;;;;;;;20.27;6.50;;;;;;;;;;5051967;28;20755;-68
2021/12/29 13:12:27;;;;;;;19.53;6.63;;;;;;;;;;5053288;28;20288;-68
2021/12/29 13:14:58;;;;;;;16.67;6.30;;;;;;;;;;5052867;28;20276;-68
2021/12/29 13:17:24;;;;;;;16.30;5.93;;;;;;;;;;5053339;28;20271;-68
2021/12/29 13:19:50;;;;;;;16.43;6.50;;;;;;;;;;5052704;28;20295;-69
2021/12/29 13:22:24;;;;;;;28.10;8.43;;;;;;;;;;5053139;28;20314;-68
2021/12/29 13:24:50;;;;;;;16.50;7.57;;;;;;;;;;5052864;28;20288;-68
2021/12/29 13:27:21;;;;;;;22.67;9.23;;;;;;;;;;5052748;28;20311;-69
2021/12/29 13:29:56;;;;;;;20.27;7.33;;;;;;;;;;5035135;28;20283;-70
2021/12/29 13:32:22;;;;;;;15.00;6.40;;;;;;;;;;5053170;28;20275;-68
2021/12/29 13:34:58;;;;;;;14.53;6.63;;;;;;;;;;5052727;28;20369;-68
2021/12/29 13:37:24;;;;;;;13.80;6.27;;;;;;;;;;5052299;28;20271;-72
2021/12/29 13:39:53;;;;;;;16.17;6.10;;;;;;;;;;5034084;28;20339;-71
2021/12/29 13:42:20;;;;;;;18.63;6.80;;;;;;;;;;5052411;28;20402;-72
2021/12/29 13:44:46;;;;;;;18.57;7.67;;;;;;;;;;5049114;28;20816;-71
2021/12/29 13:47:18;;;;;;;18.33;8.03;;;;;;;;;;5052354;28;20350;-71
2021/12/29 13:49:45;;;;;;;20.20;7.20;;;;;;;;;;5049397;28;20307;-71
2021/12/29 13:52:11;;;;;;;18.33;7.60;;;;;;;;;;5051357;28;20276;-73
2021/12/29 13:54:37;;;;;;;23.93;9.27;;;;;;;;;;5051962;28;20284;-74
2021/12/29 13:57:03;;;;;;;25.33;8.60;;;;;;;;;;5051363;28;20782;-73
2021/12/29 13:59:29;;;;;;;21.50;7.80;;;;;;;;;;5052643;28;20303;-71
2021/12/29 14:01:57;;;;;;;17.77;7.43;;;;;;;;;;5051998;28;20829;-70
2021/12/29 14:04:25;;;;;;;18.37;7.63;;;;;;;;;;5052620;28;20279;-69
2021/12/29 14:06:56;;;;;;;18.97;8.63;;;;;;;;;;5052238;28;20276;-69
2021/12/29 14:09:23;;;;;;;24.33;9.13;;;;;;;;;;5047180;28;20286;-70
2021/12/29 14:11:50;;;;;;;23.43;8.33;;;;;;;;;;5045717;28;20296;-69
2021/12/29 14:14:16;;;;;;;21.37;8.43;;;;;;;;;;5046603;28;20382;-71
2021/12/29 14:16:46;;;;;;;25.63;9.40;;;;;;;;;;5045230;28;20333;-69
2021/12/29 14:19:14;;;;;;;25.33;9.97;;;;;;;;;;5046352;28;20360;-69
2021/12/29 14:21:41;;;;;;;26.63;10.43;;;;;;;;;;5046082;28;20310;-70
2021/12/29 14:24:09;;;;;;;27.00;10.97;;;;;;;;;;5045825;28;20340;-70
2021/12/29 14:26:37;;;;;;;27.90;12.37;;;;;;;;;;5045505;28;20354;-70
2021/12/29 14:29:04;;;;;;;25.37;12.33;;;;;;;;;;5045401;28;21069;-72
2021/12/29 14:31:40;;;;;;;27.07;11.43;;;;;;;;;;5046152;28;20366;-70